Riviera Beach, Florida
Current Conditions -  °F | °C
As of 1:53 AM on Sunday 23 Nov 2014 (Local Time) from KPBI Reporting Station
Broken Clouds Broken Clouds  
Wind Chill: 78°   Ceiling: 3900
Heat Index: 80°   Visibility: 10mi
Dew Point: 72°   Wind: 17mph
Humidity: 81%   Direction: 140°SE
Pressure: 30.04"   Gusts: 28mph
Location:  26.78°N, 80.06°W
Report Text: KPBI 230653Z 14015G24KT 10SM FEW020 BKN039 BKN055 26/22 A3004 RMK AO2 RAE42 SLP171 P0000 T02560222
Loading
Personal Weather Stations






























Interactive Weather Map New forecast layout! Learn more

10-Day Weather Forecast

Advertisements
Track Severe Weather on mobile